createdAt,value
2019-04-30T00:01:18.803Z,88.40
2019-04-30T00:03:59.239Z,88.40
2019-04-30T00:06:27.404Z,88.40
2019-04-30T00:08:55.093Z,88.30
2019-04-30T00:11:25.029Z,88.30
2019-04-30T00:13:55.409Z,88.10
2019-04-30T00:16:21.507Z,88.70
2019-04-30T00:18:58.223Z,87.80
2019-04-30T00:21:18.771Z,87.70
2019-04-30T00:23:46.360Z,87.70
2019-04-30T00:26:17.027Z,87.60
2019-04-30T00:28:46.283Z,87.50
2019-04-30T00:31:12.232Z,87.40
2019-04-30T00:33:39.696Z,87.40
2019-04-30T00:36:07.065Z,87.10
2019-04-30T00:38:37.866Z,87.20
2019-04-30T00:41:06.742Z,87.00
2019-04-30T00:43:35.307Z,86.90
2019-04-30T00:46:02.450Z,86.90
2019-04-30T00:48:31.294Z,86.90
2019-04-30T00:50:58.906Z,87.00
2019-04-30T00:53:26.335Z,87.10
2019-04-30T00:55:55.636Z,87.30
2019-04-30T00:58:28.502Z,87.30
2019-04-30T01:01:04.961Z,88.10
2019-04-30T01:03:32.172Z,87.50
2019-04-30T01:05:59.508Z,87.50
2019-04-30T01:08:28.477Z,87.50
2019-04-30T01:10:59.743Z,87.60
2019-04-30T01:13:25.336Z,87.80
2019-04-30T01:15:52.732Z,87.90
2019-04-30T01:18:23.558Z,88.00
2019-04-30T01:20:49.659Z,88.00
2019-04-30T01:23:17.044Z,88.30
2019-04-30T01:25:49.901Z,88.60
2019-04-30T01:28:16.273Z,88.80
2019-04-30T01:30:43.905Z,89.00
2019-04-30T01:33:11.516Z,89.30
2019-04-30T01:35:40.593Z,89.30
2019-04-30T01:38:11.224Z,89.30
2019-04-30T01:40:42.876Z,89.40
2019-04-30T01:43:10.423Z,89.50
2019-04-30T01:45:38.695Z,89.80
2019-04-30T01:48:10.760Z,90.00
2019-04-30T01:50:38.665Z,90.10
2019-04-30T01:53:11.506Z,90.20
2019-04-30T01:55:56.772Z,90.20
2019-04-30T01:58:37.234Z,90.20
2019-04-30T02:01:10.817Z,90.30
2019-04-30T02:03:39.942Z,90.30
2019-04-30T02:06:09.147Z,90.30
2019-04-30T02:08:36.668Z,90.40
2019-04-30T02:11:04.134Z,90.50
2019-04-30T02:13:34.407Z,90.60
2019-04-30T02:16:00.664Z,90.60
2019-04-30T02:18:29.602Z,90.60
2019-04-30T02:20:59.321Z,90.70
2019-04-30T02:23:26.316Z,90.80
2019-04-30T02:25:53.550Z,90.80
2019-04-30T02:28:20.873Z,90.80
2019-04-30T02:30:50.494Z,90.90
2019-04-30T02:33:19.963Z,91.00
2019-04-30T02:36:16.685Z,91.00
2019-04-30T02:38:49.260Z,91.10
2019-04-30T02:41:19.349Z,91.20
2019-04-30T02:43:49.717Z,91.20
2019-04-30T02:46:19.253Z,91.30
2019-04-30T02:48:50.434Z,91.30
2019-04-30T02:51:22.815Z,91.70
2019-04-30T02:54:09.738Z,91.40
2019-04-30T02:56:40.036Z,91.60
2019-04-30T02:59:06.803Z,91.70
2019-04-30T03:01:34.145Z,91.80
2019-04-30T03:04:01.565Z,91.90
2019-04-30T03:06:30.429Z,92.00
2019-04-30T03:09:00.724Z,92.10
2019-04-30T03:11:29.913Z,92.30
2019-04-30T03:13:59.071Z,92.30
2019-04-30T03:16:32.376Z,92.40
2019-04-30T03:19:19.674Z,92.60
2019-04-30T03:21:51.586Z,92.70
2019-04-30T03:24:20.165Z,92.90
2019-04-30T03:26:49.999Z,93.00
2019-04-30T03:29:17.039Z,93.10
2019-04-30T03:31:45.700Z,93.20
2019-04-30T03:34:23.170Z,93.20
2019-04-30T03:36:42.489Z,93.20
2019-04-30T03:39:10.971Z,93.30
2019-04-30T03:41:41.257Z,93.40
2019-04-30T03:44:20.893Z,93.50
2019-04-30T03:46:39.806Z,93.60
2019-04-30T03:49:06.255Z,93.60
2019-04-30T03:51:33.608Z,93.70
2019-04-30T03:54:01.038Z,93.80
2019-04-30T03:56:29.915Z,93.80
2019-04-30T03:59:00.142Z,94.00
2019-04-30T04:01:45.092Z,94.00
2019-04-30T04:04:43.552Z,94.00
2019-04-30T04:07:20.194Z,94.00
2019-04-30T04:09:53.910Z,94.00
2019-04-30T04:12:21.888Z,94.10
2019-04-30T04:14:50.889Z,94.10
2019-04-30T04:17:20.236Z,94.20
2019-04-30T04:19:49.494Z,94.30
2019-04-30T04:22:20.326Z,94.30
2019-04-30T04:24:47.024Z,94.30
2019-04-30T04:27:14.509Z,94.40
2019-04-30T04:29:41.868Z,94.50
2019-04-30T04:32:10.629Z,94.50
2019-04-30T04:34:40.075Z,94.50
2019-04-30T04:37:09.908Z,94.50
2019-04-30T04:39:38.942Z,94.90
2019-04-30T04:42:05.855Z,94.60
2019-04-30T04:44:33.193Z,94.60
2019-04-30T04:47:00.610Z,94.60
2019-04-30T04:49:30.368Z,94.70
2019-04-30T04:51:59.111Z,94.70
2019-04-30T04:54:26.506Z,94.70
2019-04-30T04:57:12.765Z,94.70
2019-04-30T04:59:23.137Z,95.10
2019-04-30T05:01:50.484Z,94.80
2019-04-30T05:04:19.966Z,94.80
2019-04-30T05:06:49.585Z,94.80
2019-04-30T05:09:16.290Z,94.80
2019-04-30T05:11:43.710Z,94.70
2019-04-30T05:14:11.174Z,94.70
2019-04-30T05:16:38.958Z,94.70
2019-04-30T05:19:06.435Z,94.70
2019-04-30T05:21:41.910Z,94.70
2019-04-30T05:24:03.011Z,94.60
2019-04-30T05:26:30.380Z,94.60
2019-04-30T05:28:59.168Z,94.50
2019-04-30T05:31:28.600Z,94.50
2019-04-30T05:33:55.988Z,94.40
2019-04-30T05:36:23.457Z,94.30
2019-04-30T05:38:50.826Z,94.10
2019-04-30T05:41:19.275Z,94.00
2019-04-30T05:43:48.778Z,93.90
2019-04-30T05:46:16.133Z,93.70
2019-04-30T05:48:43.587Z,93.60
2019-04-30T05:51:11.040Z,93.40
2019-04-30T05:53:39.357Z,93.20
2019-04-30T05:56:06.853Z,93.00
2019-04-30T05:58:34.269Z,92.70
2019-04-30T06:01:01.635Z,92.50
2019-04-30T06:03:32.895Z,92.40
2019-04-30T06:05:58.944Z,92.30
2019-04-30T06:08:29.721Z,92.20
2019-04-30T06:11:04.955Z,91.90
2019-04-30T06:13:58.858Z,91.80
2019-04-30T06:16:26.983Z,91.60
2019-04-30T06:18:54.265Z,91.30
2019-04-30T06:21:21.727Z,91.20
2019-04-30T06:23:49.263Z,91.10
2019-04-30T06:26:16.927Z,90.90
2019-04-30T06:28:44.398Z,90.50
2019-04-30T06:31:11.715Z,90.40
2019-04-30T06:33:39.104Z,90.30
2019-04-30T06:36:08.550Z,90.30
2019-04-30T06:38:35.988Z,90.30
2019-04-30T06:41:03.464Z,90.20
2019-04-30T06:43:30.826Z,90.10
2019-04-30T06:45:58.981Z,90.00
2019-04-30T06:48:29.542Z,89.60
2019-04-30T06:50:56.850Z,89.40
2019-04-30T06:53:24.168Z,88.60
2019-04-30T06:55:51.539Z,88.10
2019-04-30T06:58:20.580Z,87.50
2019-04-30T07:00:49.690Z,86.80
2019-04-30T07:03:19.015Z,86.10
2019-04-30T07:05:48.623Z,85.40
2019-04-30T07:08:55.694Z,85.10
2019-04-30T07:11:32.086Z,85.10
2019-04-30T07:14:00.037Z,85.10
2019-04-30T07:16:29.656Z,85.10
2019-04-30T07:18:58.512Z,85.10
2019-04-30T07:21:26.050Z,85.10
2019-04-30T07:23:53.412Z,84.50
2019-04-30T07:26:24.471Z,84.20
2019-04-30T07:28:54.925Z,83.70
2019-04-30T07:31:19.460Z,84.30
2019-04-30T07:33:51.456Z,83.50
2019-04-30T07:36:16.126Z,83.40
2019-04-30T07:38:51.880Z,83.10
2019-04-30T07:41:13.048Z,82.60
2019-04-30T07:43:40.512Z,82.20
2019-04-30T07:46:09.391Z,81.50
2019-04-30T07:48:37.310Z,81.10
2019-04-30T07:51:05.830Z,80.00
2019-04-30T07:53:33.364Z,79.20
2019-04-30T07:56:02.211Z,78.30
2019-04-30T07:58:29.957Z,77.50
2019-04-30T08:00:59.249Z,76.80
2019-04-30T08:03:46.410Z,75.90
2019-04-30T08:06:14.599Z,75.00
2019-04-30T08:08:41.961Z,73.80
2019-04-30T08:11:22.795Z,73.40
2019-04-30T08:13:40.456Z,72.70
2019-04-30T08:16:09.773Z,72.10
2019-04-30T08:18:39.126Z,70.60
2019-04-30T08:21:06.636Z,69.90
2019-04-30T08:23:37.111Z,70.00
2019-04-30T08:26:03.862Z,68.60
2019-04-30T08:28:31.266Z,67.00
2019-04-30T08:30:59.018Z,64.60
2019-04-30T08:33:26.438Z,63.20
2019-04-30T08:35:53.802Z,62.00
2019-04-30T08:38:21.222Z,60.80
2019-04-30T08:40:56.010Z,60.70
2019-04-30T08:43:19.814Z,60.30
2019-04-30T08:45:48.809Z,59.60
2019-04-30T08:48:16.285Z,59.10
2019-04-30T08:50:44.851Z,58.50
2019-04-30T08:53:12.319Z,58.50
2019-04-30T08:55:39.927Z,58.30
2019-04-30T08:58:12.067Z,57.90
2019-04-30T09:00:38.431Z,56.60
2019-04-30T09:03:06.097Z,56.40
2019-04-30T09:05:51.711Z,56.40
2019-04-30T09:08:19.437Z,55.90
2019-04-30T09:10:48.901Z,55.20
2019-04-30T09:13:16.207Z,54.60
2019-04-30T09:15:43.521Z,54.60
2019-04-30T09:18:12.518Z,54.40
2019-04-30T09:20:40.937Z,53.60
2019-04-30T09:23:10.980Z,53.00
2019-04-30T09:25:39.603Z,51.90
2019-04-30T09:28:08.566Z,49.70
2019-04-30T09:30:36.110Z,46.90
2019-04-30T09:33:03.504Z,43.10
2019-04-30T09:35:32.150Z,39.40
2019-04-30T09:38:01.874Z,36.00
2019-04-30T09:40:32.310Z,34.40
2019-04-30T09:42:58.568Z,35.00
2019-04-30T09:45:28.568Z,34.40
2019-04-30T09:47:56.049Z,33.00
2019-04-30T09:50:23.382Z,31.00
2019-04-30T09:52:50.893Z,29.70
2019-04-30T09:55:19.366Z,28.60
2019-04-30T09:57:48.698Z,27.70
2019-04-30T10:00:16.979Z,27.20
2019-04-30T10:02:44.353Z,28.00
2019-04-30T10:05:13.166Z,29.30
2019-04-30T10:07:40.792Z,28.90
2019-04-30T10:10:11.498Z,28.00
2019-04-30T10:12:39.266Z,27.40
2019-04-30T10:15:09.137Z,26.50
2019-04-30T10:17:38.564Z,26.10
2019-04-30T10:20:07.548Z,25.60
2019-04-30T10:22:34.906Z,25.30
2019-04-30T10:25:02.290Z,24.90
2019-04-30T10:27:29.622Z,24.60
2019-04-30T10:29:56.988Z,24.50
2019-04-30T10:32:24.320Z,23.90
2019-04-30T10:34:51.656Z,23.40
2019-04-30T10:37:19.160Z,23.20
2019-04-30T10:39:48.786Z,23.00
2019-04-30T10:42:15.668Z,22.80
2019-04-30T10:44:43.151Z,23.00
2019-04-30T10:47:10.570Z,23.10
2019-04-30T10:49:38.951Z,24.00
2019-04-30T10:52:06.470Z,25.80
2019-04-30T10:54:33.822Z,26.20
2019-04-30T10:57:01.192Z,25.70
2019-04-30T10:59:28.535Z,25.10
2019-04-30T11:01:55.863Z,24.70
2019-04-30T11:04:23.225Z,24.60
2019-04-30T11:06:50.552Z,24.20
2019-04-30T11:09:17.906Z,23.80
2019-04-30T11:11:45.226Z,23.80
2019-04-30T11:14:12.593Z,24.00
2019-04-30T11:16:40.037Z,24.10
2019-04-30T11:19:09.140Z,24.20
2019-04-30T11:21:36.637Z,24.80
2019-04-30T11:24:04.222Z,24.80
2019-04-30T11:26:32.508Z,24.90
2019-04-30T11:29:00.491Z,25.00
2019-04-30T11:31:40.678Z,25.50
2019-04-30T11:34:08.291Z,25.80
2019-04-30T11:36:35.606Z,25.80
2019-04-30T11:39:08.591Z,26.10
2019-04-30T11:41:35.904Z,28.00
2019-04-30T11:44:04.195Z,29.50
2019-04-30T11:47:09.372Z,30.30
2019-04-30T11:49:36.870Z,31.50
2019-04-30T11:52:04.236Z,32.40
2019-04-30T11:54:31.567Z,33.60
2019-04-30T11:56:59.156Z,34.70
2019-04-30T11:59:26.386Z,35.20
2019-04-30T12:01:55.674Z,36.00
2019-04-30T12:04:23.012Z,36.70
2019-04-30T12:06:51.196Z,37.30
2019-04-30T12:09:50.017Z,37.90
2019-04-30T12:12:18.944Z,38.40
2019-04-30T12:14:46.441Z,39.10
2019-04-30T12:17:13.797Z,39.40
2019-04-30T12:19:41.190Z,40.00
2019-04-30T12:22:08.599Z,40.40
2019-04-30T12:24:35.954Z,40.90
2019-04-30T12:27:03.308Z,41.30
2019-04-30T12:29:30.712Z,41.70
2019-04-30T12:31:58.051Z,41.60
2019-04-30T12:34:25.362Z,41.60
2019-04-30T12:36:55.652Z,41.30
2019-04-30T12:39:22.888Z,41.30
2019-04-30T12:41:50.376Z,41.70
2019-04-30T12:44:17.794Z,41.70
2019-04-30T12:46:45.100Z,42.00
2019-04-30T12:49:12.977Z,42.40
2019-04-30T12:52:14.990Z,42.60
2019-04-30T12:55:15.155Z,42.40
2019-04-30T12:57:39.928Z,42.20
2019-04-30T13:00:09.618Z,42.40
2019-04-30T13:02:36.956Z,42.00
2019-04-30T13:05:04.669Z,41.80
2019-04-30T13:07:32.497Z,42.40
2019-04-30T13:10:01.316Z,42.90
2019-04-30T13:12:29.987Z,41.80
2019-04-30T13:14:57.903Z,41.60
2019-04-30T13:17:25.234Z,41.60
2019-04-30T13:19:52.561Z,41.20
2019-04-30T13:22:19.918Z,40.90
2019-04-30T13:24:49.192Z,40.20
2019-04-30T13:27:16.594Z,40.40
2019-04-30T13:30:03.476Z,40.30
2019-04-30T13:32:34.669Z,40.00
2019-04-30T13:35:02.102Z,39.70
2019-04-30T13:37:44.110Z,39.30
2019-04-30T13:40:20.495Z,38.50
2019-04-30T13:42:49.125Z,38.70
2019-04-30T13:45:16.471Z,38.80
2019-04-30T13:47:43.753Z,38.80
2019-04-30T13:50:11.404Z,38.20
2019-04-30T13:52:39.016Z,37.50
2019-04-30T13:55:06.765Z,37.40
2019-04-30T13:57:34.454Z,37.40
2019-04-30T14:00:02.146Z,37.40
2019-04-30T14:02:33.158Z,37.60
2019-04-30T14:05:11.092Z,37.00
2019-04-30T14:07:54.375Z,37.10
2019-04-30T14:10:21.810Z,37.00
2019-04-30T14:12:55.605Z,36.40
2019-04-30T14:15:23.250Z,36.00
2019-04-30T14:17:50.546Z,35.60
2019-04-30T14:20:17.901Z,35.70
2019-04-30T14:22:45.189Z,36.20
2019-04-30T14:25:12.878Z,36.30
2019-04-30T14:27:49.305Z,36.30
2019-04-30T14:30:11.261Z,37.10
2019-04-30T14:32:39.605Z,37.30
2019-04-30T14:35:08.960Z,37.80
2019-04-30T14:37:36.193Z,37.80
2019-04-30T14:40:05.035Z,38.00
2019-04-30T14:42:34.860Z,37.90
2019-04-30T14:45:15.698Z,37.60
2019-04-30T14:47:55.592Z,37.80
2019-04-30T14:50:23.527Z,37.80
2019-04-30T14:53:05.302Z,37.40
2019-04-30T14:56:08.510Z,37.60
2019-04-30T14:58:51.433Z,37.50
2019-04-30T15:01:38.303Z,37.90
2019-04-30T15:04:05.800Z,38.20
2019-04-30T15:06:33.150Z,38.40
2019-04-30T15:09:00.594Z,38.60
2019-04-30T15:11:28.840Z,38.50
2019-04-30T15:13:56.304Z,38.30
2019-04-30T15:16:23.676Z,38.80
2019-04-30T15:18:51.041Z,38.80
2019-04-30T15:21:18.420Z,39.20
2019-04-30T15:24:10.934Z,39.50
2019-04-30T15:26:41.113Z,39.50
2019-04-30T15:29:11.859Z,39.60
2019-04-30T15:31:36.904Z,39.50
2019-04-30T15:34:11.123Z,39.30
2019-04-30T15:36:39.325Z,39.30
2019-04-30T15:39:26.532Z,39.50
2019-04-30T15:41:53.756Z,40.30
2019-04-30T15:44:21.072Z,40.40
2019-04-30T15:46:48.440Z,40.20
2019-04-30T15:49:15.793Z,40.60
2019-04-30T15:51:43.214Z,40.90
2019-04-30T15:54:10.622Z,41.30
2019-04-30T15:56:40.502Z,41.30
2019-04-30T15:59:22.846Z,41.60
2019-04-30T16:01:52.268Z,41.80
2019-04-30T16:04:28.557Z,42.10
2019-04-30T16:06:56.029Z,42.40
2019-04-30T16:09:28.987Z,42.70
2019-04-30T16:12:08.530Z,42.80
2019-04-30T16:14:37.181Z,42.90
2019-04-30T16:17:15.109Z,43.20
2019-04-30T16:19:42.523Z,43.80
2019-04-30T16:22:10.103Z,44.20
2019-04-30T16:24:38.689Z,44.40
2019-04-30T16:27:06.131Z,44.50
2019-04-30T16:29:33.585Z,44.70
2019-04-30T16:32:00.990Z,45.30
2019-04-30T16:34:30.202Z,45.40
2019-04-30T16:36:59.054Z,45.60
2019-04-30T16:39:28.632Z,46.20
2019-04-30T16:41:56.104Z,46.60
2019-04-30T16:44:23.470Z,47.10
2019-04-30T16:46:50.886Z,47.40
2019-04-30T16:49:18.227Z,47.60
2019-04-30T16:51:45.648Z,47.60
2019-04-30T16:54:12.983Z,47.70
2019-04-30T16:56:40.385Z,48.20
2019-04-30T16:59:09.685Z,48.80
2019-04-30T17:01:37.265Z,49.10
2019-04-30T17:04:19.211Z,49.70
2019-04-30T17:06:51.705Z,50.30
2019-04-30T17:09:25.900Z,51.00
2019-04-30T17:12:11.325Z,51.50
2019-04-30T17:14:40.033Z,52.20
2019-04-30T17:17:07.365Z,52.60
2019-04-30T17:19:34.725Z,53.10
2019-04-30T17:22:04.663Z,53.50
2019-04-30T17:24:34.115Z,53.90
2019-04-30T17:27:01.355Z,54.10
2019-04-30T17:29:28.716Z,54.60
2019-04-30T17:31:56.131Z,54.90
2019-04-30T17:34:23.474Z,55.20
2019-04-30T17:36:50.957Z,55.90
2019-04-30T17:39:19.941Z,56.20
2019-04-30T17:41:50.891Z,56.50
2019-04-30T17:44:19.314Z,56.90
2019-04-30T17:46:47.037Z,57.30
2019-04-30T17:49:15.085Z,57.80
2019-04-30T17:51:42.728Z,58.30
2019-04-30T17:54:13.038Z,58.70
2019-04-30T17:56:42.433Z,59.10
2019-04-30T17:59:10.569Z,59.70
2019-04-30T18:01:40.136Z,60.10
2019-04-30T18:04:10.631Z,60.70
2019-04-30T18:06:38.345Z,61.20
2019-04-30T18:09:10.748Z,61.80
2019-04-30T18:11:36.410Z,62.20
2019-04-30T18:14:04.109Z,62.90
2019-04-30T18:16:31.547Z,63.50
2019-04-30T18:19:11.931Z,63.90
2019-04-30T18:21:48.613Z,64.40
2019-04-30T18:24:37.017Z,65.00
2019-04-30T18:27:23.964Z,65.30
2019-04-30T18:29:51.321Z,65.80
2019-04-30T18:32:19.801Z,66.40
2019-04-30T18:34:49.037Z,67.00
2019-04-30T18:37:16.582Z,67.50
2019-04-30T18:39:43.918Z,67.70
2019-04-30T18:42:11.285Z,68.20
2019-04-30T18:44:38.505Z,68.60
2019-04-30T18:47:05.988Z,68.70
2019-04-30T18:49:33.350Z,69.00
2019-04-30T18:52:01.018Z,69.40
2019-04-30T18:54:28.987Z,69.80
2019-04-30T18:56:56.447Z,70.10
2019-04-30T18:59:23.772Z,70.20
2019-04-30T19:01:51.185Z,70.80
2019-04-30T19:04:18.918Z,71.00
2019-04-30T19:06:46.433Z,71.10
2019-04-30T19:09:35.922Z,71.50
2019-04-30T19:12:34.645Z,72.00
2019-04-30T19:15:48.493Z,72.40
2019-04-30T19:18:15.876Z,72.70
2019-04-30T19:20:46.223Z,73.00
2019-04-30T19:23:13.630Z,73.20
2019-04-30T19:25:41.135Z,73.50
2019-04-30T19:28:12.142Z,73.60
2019-04-30T19:30:38.986Z,73.90
2019-04-30T19:33:08.561Z,74.10
2019-04-30T19:35:35.849Z,74.40
2019-04-30T19:38:05.888Z,74.60
2019-04-30T19:40:33.936Z,74.90
2019-04-30T19:43:01.371Z,75.10
2019-04-30T19:45:28.901Z,75.30
2019-04-30T19:47:56.343Z,75.50
2019-04-30T19:50:23.862Z,75.80
2019-04-30T19:52:51.204Z,76.10
2019-04-30T19:55:20.410Z,76.20
2019-04-30T19:57:48.385Z,76.40
2019-04-30T20:00:17.662Z,76.60
2019-04-30T20:02:45.139Z,76.80
2019-04-30T20:05:12.614Z,77.00
2019-04-30T20:07:40.687Z,77.20
2019-04-30T20:10:08.997Z,77.30
2019-04-30T20:12:36.562Z,77.50
2019-04-30T20:15:16.468Z,77.70
2019-04-30T20:17:33.899Z,77.90
2019-04-30T20:20:01.457Z,78.00
2019-04-30T20:22:29.222Z,78.20
2019-04-30T20:24:56.693Z,78.40
2019-04-30T20:27:24.155Z,78.70
2019-04-30T20:29:51.791Z,78.80
2019-04-30T20:32:20.850Z,79.00
2019-04-30T20:34:48.969Z,79.30
2019-04-30T20:37:16.334Z,79.60
2019-04-30T20:39:52.017Z,79.80
2019-04-30T20:42:19.371Z,80.20
2019-04-30T20:44:48.871Z,80.50
2019-04-30T20:47:16.098Z,80.70
2019-04-30T20:49:43.484Z,81.00
2019-04-30T20:52:10.859Z,81.30
2019-04-30T20:54:38.997Z,81.50
2019-04-30T20:57:08.609Z,81.80
2019-04-30T20:59:35.672Z,82.00
2019-04-30T21:02:03.051Z,82.10
2019-04-30T21:04:30.400Z,82.40
2019-04-30T21:06:59.489Z,82.50
2019-04-30T21:09:27.033Z,82.90
2019-04-30T21:11:54.541Z,83.10
2019-04-30T21:14:21.971Z,83.40
2019-04-30T21:16:49.374Z,83.60
2019-04-30T21:19:16.881Z,83.70
2019-04-30T21:21:44.235Z,84.00
2019-04-30T21:24:11.601Z,84.60
2019-04-30T21:26:39.087Z,84.90
2019-04-30T21:29:13.701Z,85.00
2019-04-30T21:31:52.458Z,85.10
2019-04-30T21:34:29.943Z,85.40
2019-04-30T21:36:59.549Z,85.70
2019-04-30T21:39:27.028Z,86.00
2019-04-30T21:41:56.464Z,86.10
2019-04-30T21:44:23.832Z,86.40
2019-04-30T21:46:51.269Z,86.90
2019-04-30T21:49:18.603Z,87.20
2019-04-30T21:51:46.226Z,87.40
2019-04-30T21:54:13.973Z,87.50
2019-04-30T21:56:41.248Z,87.80
2019-04-30T21:59:08.467Z,88.20
2019-04-30T22:01:35.886Z,88.40
2019-04-30T22:04:03.269Z,88.60
2019-04-30T22:06:30.668Z,88.90
2019-04-30T22:08:58.579Z,89.10
2019-04-30T22:11:26.205Z,89.50
2019-04-30T22:13:53.662Z,89.60
2019-04-30T22:16:21.016Z,89.60
2019-04-30T22:18:48.374Z,89.90
2019-04-30T22:21:15.723Z,90.00
2019-04-30T22:23:43.096Z,90.10
2019-04-30T22:26:10.419Z,90.20
2019-04-30T22:28:39.134Z,90.30
2019-04-30T22:31:08.612Z,90.30
2019-04-30T22:33:36.227Z,90.40
2019-04-30T22:36:25.904Z,90.50
2019-04-30T22:39:12.071Z,90.50
2019-04-30T22:41:39.865Z,90.60
2019-04-30T22:44:07.210Z,90.70
2019-04-30T22:46:34.570Z,90.90
2019-04-30T22:49:01.830Z,90.90
2019-04-30T22:51:29.158Z,91.00
2019-04-30T22:53:56.573Z,91.10
2019-04-30T22:56:23.961Z,91.10
2019-04-30T22:58:52.123Z,91.20
2019-04-30T23:01:50.754Z,91.30
2019-04-30T23:04:27.243Z,91.30
2019-04-30T23:06:54.644Z,91.30
2019-04-30T23:09:21.999Z,91.70
2019-04-30T23:11:49.677Z,91.50
2019-04-30T23:14:19.031Z,91.60
2019-04-30T23:16:46.452Z,91.60
2019-04-30T23:19:13.959Z,91.60
2019-04-30T23:21:41.459Z,91.70
2019-04-30T23:24:08.765Z,91.80
2019-04-30T23:26:36.065Z,91.90
2019-04-30T23:29:03.747Z,91.90
2019-04-30T23:31:31.119Z,92.00
2019-04-30T23:33:58.480Z,92.00
2019-04-30T23:36:25.863Z,92.10
2019-04-30T23:38:53.359Z,92.10
2019-04-30T23:41:21.208Z,92.20
2019-04-30T23:43:48.597Z,92.20
2019-04-30T23:46:16.040Z,92.30
2019-04-30T23:48:43.419Z,92.40
2019-04-30T23:51:10.810Z,92.50
2019-04-30T23:53:38.174Z,92.60
2019-04-30T23:56:05.503Z,92.60
2019-04-30T23:58:32.827Z,92.70
